sensor_id;sensor_type;location;lat;lon;timestamp;temperature;humidity
69261;DHT22;56378;52.404;20.816;2022-12-05T00:01:28;-0.40;99.90
69261;DHT22;56378;52.404;20.816;2022-12-05T00:03:56;-0.40;99.90
69261;DHT22;56378;52.404;20.816;2022-12-05T00:06:24;-0.40;99.90
69261;DHT22;56378;52.404;20.816;2022-12-05T00:08:50;-0.40;99.90
69261;DHT22;56378;52.404;20.816;2022-12-05T00:11:19;-0.40;99.90
69261;DHT22;56378;52.404;20.816;2022-12-05T00:13:45;-0.30;99.90
69261;DHT22;56378;52.404;20.816;2022-12-05T00:16:15;-0.40;99.90
69261;DHT22;56378;52.404;20.816;2022-12-05T00:18:42;-0.40;99.90
69261;DHT22;56378;52.404;20.816;2022-12-05T00:21:13;-0.40;99.90
69261;DHT22;56378;52.404;20.816;2022-12-05T00:23:38;-0.40;99.90
69261;DHT22;56378;52.404;20.816;2022-12-05T00:26:04;-0.50;99.90
69261;DHT22;56378;52.404;20.816;2022-12-05T00:28:34;-0.50;99.90
69261;DHT22;56378;52.404;20.816;2022-12-05T00:31:11;-0.50;99.90
69261;DHT22;56378;52.404;20.816;2022-12-05T00:33:38;-0.50;99.90
69261;DHT22;56378;52.404;20.816;2022-12-05T00:36:06;-0.50;99.90
69261;DHT22;56378;52.404;20.816;2022-12-05T00:38:32;-0.50;99.90
69261;DHT22;56378;52.404;20.816;2022-12-05T00:41:06;-0.50;99.90
69261;DHT22;56378;52.404;20.816;2022-12-05T00:43:32;-0.40;99.90
69261;DHT22;56378;52.404;20.816;2022-12-05T00:46:09;-0.40;99.90
69261;DHT22;56378;52.404;20.816;2022-12-05T00:48:35;-0.40;99.90
69261;DHT22;56378;52.404;20.816;2022-12-05T00:53:27;-0.50;99.90
69261;DHT22;56378;52.404;20.816;2022-12-05T00:55:53;-0.50;99.90
69261;DHT22;56378;52.404;20.816;2022-12-05T00:58:19;-0.50;99.90
69261;DHT22;56378;52.404;20.816;2022-12-05T01:00:44;-0.50;99.90
69261;DHT22;56378;52.404;20.816;2022-12-05T01:03:10;-0.50;99.90
69261;DHT22;56378;52.404;20.816;2022-12-05T01:05:36;-0.50;99.90
69261;DHT22;56378;52.404;20.816;2022-12-05T01:08:01;-0.50;99.90
69261;DHT22;56378;52.404;20.816;2022-12-05T01:10:27;-0.60;99.90
69261;DHT22;56378;52.404;20.816;2022-12-05T01:12:53;-0.60;99.90
69261;DHT22;56378;52.404;20.816;2022-12-05T01:15:18;-0.60;99.90
69261;DHT22;56378;52.404;20.816;2022-12-05T01:17:44;-0.60;99.90
69261;DHT22;56378;52.404;20.816;2022-12-05T01:20:10;-0.60;99.90
69261;DHT22;56378;52.404;20.816;2022-12-05T01:22:36;-0.60;99.90
69261;DHT22;56378;52.404;20.816;2022-12-05T01:25:02;-0.60;99.90
69261;DHT22;56378;52.404;20.816;2022-12-05T01:27:28;-0.60;99.90
69261;DHT22;56378;52.404;20.816;2022-12-05T01:29:53;-0.60;99.90
69261;DHT22;56378;52.404;20.816;2022-12-05T01:32:19;-0.60;99.90
69261;DHT22;56378;52.404;20.816;2022-12-05T01:34:45;-0.50;99.90
69261;DHT22;56378;52.404;20.816;2022-12-05T01:37:10;-0.50;99.90
69261;DHT22;56378;52.404;20.816;2022-12-05T01:39:36;-0.50;99.90
69261;DHT22;56378;52.404;20.816;2022-12-05T01:42:03;-0.50;99.90
69261;DHT22;56378;52.404;20.816;2022-12-05T01:46:55;-0.50;99.90
69261;DHT22;56378;52.404;20.816;2022-12-05T01:49:32;-0.50;99.90
69261;DHT22;56378;52.404;20.816;2022-12-05T01:52:20;-0.50;99.90
69261;DHT22;56378;52.404;20.816;2022-12-05T01:54:50;-0.50;99.90
69261;DHT22;56378;52.404;20.816;2022-12-05T01:57:16;-0.50;99.90
69261;DHT22;56378;52.404;20.816;2022-12-05T01:59:49;-0.50;99.90
69261;DHT22;56378;52.404;20.816;2022-12-05T02:02:15;-0.60;99.90
69261;DHT22;56378;52.404;20.816;2022-12-05T02:05:19;-0.70;99.90
69261;DHT22;56378;52.404;20.816;2022-12-05T02:07:38;-0.70;99.90
69261;DHT22;56378;52.404;20.816;2022-12-05T02:10:05;-0.70;99.90
69261;DHT22;56378;52.404;20.816;2022-12-05T02:12:32;-0.60;99.90
69261;DHT22;56378;52.404;20.816;2022-12-05T02:20:38;-0.60;99.90
69261;DHT22;56378;52.404;20.816;2022-12-05T02:31:10;-0.70;99.90
69261;DHT22;56378;52.404;20.816;2022-12-05T02:33:49;-0.60;99.90
69261;DHT22;56378;52.404;20.816;2022-12-05T02:36:43;-0.70;99.90
69261;DHT22;56378;52.404;20.816;2022-12-05T02:39:34;-0.70;99.90
69261;DHT22;56378;52.404;20.816;2022-12-05T02:42:14;-0.70;99.90
69261;DHT22;56378;52.404;20.816;2022-12-05T02:44:49;-0.70;99.90
69261;DHT22;56378;52.404;20.816;2022-12-05T02:47:18;-0.70;99.90
69261;DHT22;56378;52.404;20.816;2022-12-05T02:49:46;-0.70;99.90
69261;DHT22;56378;52.404;20.816;2022-12-05T02:52:14;-0.70;99.90
69261;DHT22;56378;52.404;20.816;2022-12-05T02:54:43;-0.70;99.90
69261;DHT22;56378;52.404;20.816;2022-12-05T02:57:12;-0.80;99.90
69261;DHT22;56378;52.404;20.816;2022-12-05T02:59:38;-0.80;99.90
69261;DHT22;56378;52.404;20.816;2022-12-05T03:02:04;-0.80;99.90
69261;DHT22;56378;52.404;20.816;2022-12-05T03:04:30;-0.80;99.90
69261;DHT22;56378;52.404;20.816;2022-12-05T03:06:59;-0.80;99.90
69261;DHT22;56378;52.404;20.816;2022-12-05T03:09:46;-0.80;99.90
69261;DHT22;56378;52.404;20.816;2022-12-05T03:12:19;-0.90;99.90
69261;DHT22;56378;52.404;20.816;2022-12-05T03:14:55;-0.80;99.90
69261;DHT22;56378;52.404;20.816;2022-12-05T03:17:25;-0.90;99.90
69261;DHT22;56378;52.404;20.816;2022-12-05T03:19:56;-0.80;99.90
69261;DHT22;56378;52.404;20.816;2022-12-05T03:22:29;-0.80;99.90
69261;DHT22;56378;52.404;20.816;2022-12-05T03:24:57;-0.80;99.90
69261;DHT22;56378;52.404;20.816;2022-12-05T03:27:31;-0.80;99.90
69261;DHT22;56378;52.404;20.816;2022-12-05T03:30:07;-0.80;99.90
69261;DHT22;56378;52.404;20.816;2022-12-05T03:40:33;-0.80;99.60
69261;DHT22;56378;52.404;20.816;2022-12-05T03:43:10;-0.80;99.50
69261;DHT22;56378;52.404;20.816;2022-12-05T03:48:14;-0.80;99.80
69261;DHT22;56378;52.404;20.816;2022-12-05T03:50:43;-0.80;99.70
69261;DHT22;56378;52.404;20.816;2022-12-05T03:53:18;-0.70;99.60
69261;DHT22;56378;52.404;20.816;2022-12-05T03:55:48;-0.80;99.40
69261;DHT22;56378;52.404;20.816;2022-12-05T03:58:22;-0.80;99.40
69261;DHT22;56378;52.404;20.816;2022-12-05T04:00:51;-0.80;99.70
69261;DHT22;56378;52.404;20.816;2022-12-05T04:03:32;-0.80;99.80
69261;DHT22;56378;52.404;20.816;2022-12-05T04:06:06;-0.80;99.80
69261;DHT22;56378;52.404;20.816;2022-12-05T04:08:38;-0.80;99.70
69261;DHT22;56378;52.404;20.816;2022-12-05T04:11:11;-0.80;99.70
69261;DHT22;56378;52.404;20.816;2022-12-05T04:13:43;-0.80;99.90
69261;DHT22;56378;52.404;20.816;2022-12-05T04:16:24;-0.80;99.90
69261;DHT22;56378;52.404;20.816;2022-12-05T04:21:48;-0.90;99.90
69261;DHT22;56378;52.404;20.816;2022-12-05T04:24:28;-0.90;99.90
69261;DHT22;56378;52.404;20.816;2022-12-05T04:27:34;-0.90;99.90
69261;DHT22;56378;52.404;20.816;2022-12-05T04:32:48;-0.80;99.90
69261;DHT22;56378;52.404;20.816;2022-12-05T04:35:29;-0.80;99.90
69261;DHT22;56378;52.404;20.816;2022-12-05T04:38:26;-0.80;99.90
69261;DHT22;56378;52.404;20.816;2022-12-05T04:41:00;-0.80;99.60
69261;DHT22;56378;52.404;20.816;2022-12-05T04:43:29;-0.80;99.70
69261;DHT22;56378;52.404;20.816;2022-12-05T04:45:56;-0.90;99.90
69261;DHT22;56378;52.404;20.816;2022-12-05T04:48:24;-0.90;99.90
69261;DHT22;56378;52.404;20.816;2022-12-05T04:50:53;-0.90;99.90
69261;DHT22;56378;52.404;20.816;2022-12-05T04:53:22;-0.90;99.90
69261;DHT22;56378;52.404;20.816;2022-12-05T04:55:50;-0.90;99.90
69261;DHT22;56378;52.404;20.816;2022-12-05T04:58:20;-0.90;99.90
69261;DHT22;56378;52.404;20.816;2022-12-05T05:03:42;-0.90;99.90
69261;DHT22;56378;52.404;20.816;2022-12-05T05:06:10;-1.00;99.90
69261;DHT22;56378;52.404;20.816;2022-12-05T05:08:44;-1.00;99.90
69261;DHT22;56378;52.404;20.816;2022-12-05T05:11:15;-1.00;99.90
69261;DHT22;56378;52.404;20.816;2022-12-05T05:13:41;-1.00;99.90
69261;DHT22;56378;52.404;20.816;2022-12-05T05:16:11;-0.90;99.90
69261;DHT22;56378;52.404;20.816;2022-12-05T05:18:37;-1.00;99.90
69261;DHT22;56378;52.404;20.816;2022-12-05T05:21:02;-0.90;99.90
69261;DHT22;56378;52.404;20.816;2022-12-05T05:23:28;-0.90;99.70
69261;DHT22;56378;52.404;20.816;2022-12-05T05:25:55;-0.90;99.50
69261;DHT22;56378;52.404;20.816;2022-12-05T05:28:21;-0.90;99.00
69261;DHT22;56378;52.404;20.816;2022-12-05T05:30:47;-0.90;98.70
69261;DHT22;56378;52.404;20.816;2022-12-05T05:33:13;-0.90;98.60
69261;DHT22;56378;52.404;20.816;2022-12-05T05:35:39;-0.90;98.50
69261;DHT22;56378;52.404;20.816;2022-12-05T05:38:05;-0.90;98.30
69261;DHT22;56378;52.404;20.816;2022-12-05T05:40:34;-0.90;98.50
69261;DHT22;56378;52.404;20.816;2022-12-05T05:43:01;-0.90;98.60
69261;DHT22;56378;52.404;20.816;2022-12-05T05:45:27;-0.90;98.50
69261;DHT22;56378;52.404;20.816;2022-12-05T05:47:52;-1.00;98.70
69261;DHT22;56378;52.404;20.816;2022-12-05T05:50:18;-1.00;98.90
69261;DHT22;56378;52.404;20.816;2022-12-05T05:52:43;-1.00;99.00
69261;DHT22;56378;52.404;20.816;2022-12-05T05:55:09;-1.00;98.80
69261;DHT22;56378;52.404;20.816;2022-12-05T05:57:35;-1.00;98.90
69261;DHT22;56378;52.404;20.816;2022-12-05T06:00:04;-1.00;98.90
69261;DHT22;56378;52.404;20.816;2022-12-05T06:02:32;-0.90;98.80
69261;DHT22;56378;52.404;20.816;2022-12-05T06:04:58;-0.90;98.60
69261;DHT22;56378;52.404;20.816;2022-12-05T06:07:23;-0.90;98.60
69261;DHT22;56378;52.404;20.816;2022-12-05T06:09:49;-0.90;98.70
69261;DHT22;56378;52.404;20.816;2022-12-05T06:12:15;-0.90;98.80
69261;DHT22;56378;52.404;20.816;2022-12-05T06:14:40;-0.90;98.70
69261;DHT22;56378;52.404;20.816;2022-12-05T06:17:06;-0.90;98.50
69261;DHT22;56378;52.404;20.816;2022-12-05T06:19:32;-0.90;98.30
69261;DHT22;56378;52.404;20.816;2022-12-05T06:21:57;-0.90;98.00
69261;DHT22;56378;52.404;20.816;2022-12-05T06:24:23;-0.90;98.00
69261;DHT22;56378;52.404;20.816;2022-12-05T06:26:49;-0.90;97.90
69261;DHT22;56378;52.404;20.816;2022-12-05T06:29:14;-0.90;97.90
69261;DHT22;56378;52.404;20.816;2022-12-05T06:31:41;-0.90;97.60
69261;DHT22;56378;52.404;20.816;2022-12-05T06:34:07;-0.90;97.30
69261;DHT22;56378;52.404;20.816;2022-12-05T06:36:33;-0.90;97.40
69261;DHT22;56378;52.404;20.816;2022-12-05T06:38:59;-0.90;97.70
69261;DHT22;56378;52.404;20.816;2022-12-05T06:41:26;-0.90;97.80
69261;DHT22;56378;52.404;20.816;2022-12-05T06:43:57;-0.90;97.80
69261;DHT22;56378;52.404;20.816;2022-12-05T06:46:24;-0.90;97.80
69261;DHT22;56378;52.404;20.816;2022-12-05T06:48:55;-0.90;97.60
69261;DHT22;56378;52.404;20.816;2022-12-05T06:51:21;-0.90;97.60
69261;DHT22;56378;52.404;20.816;2022-12-05T06:53:47;-0.90;97.60
69261;DHT22;56378;52.404;20.816;2022-12-05T06:56:16;-0.90;97.60
69261;DHT22;56378;52.404;20.816;2022-12-05T06:58:43;-0.80;97.60
69261;DHT22;56378;52.404;20.816;2022-12-05T07:01:20;-0.80;97.40
69261;DHT22;56378;52.404;20.816;2022-12-05T07:04:12;-0.80;97.30
69261;DHT22;56378;52.404;20.816;2022-12-05T07:06:39;-0.80;97.50
69261;DHT22;56378;52.404;20.816;2022-12-05T07:09:06;-0.80;97.50
69261;DHT22;56378;52.404;20.816;2022-12-05T07:11:31;-0.80;97.50
69261;DHT22;56378;52.404;20.816;2022-12-05T07:13:57;-0.80;97.50
69261;DHT22;56378;52.404;20.816;2022-12-05T07:16:23;-0.80;97.70
69261;DHT22;56378;52.404;20.816;2022-12-05T07:18:49;-0.80;97.60
69261;DHT22;56378;52.404;20.816;2022-12-05T07:21:15;-0.80;97.80
69261;DHT22;56378;52.404;20.816;2022-12-05T07:23:43;-0.80;97.90
69261;DHT22;56378;52.404;20.816;2022-12-05T07:26:13;-0.80;98.20
69261;DHT22;56378;52.404;20.816;2022-12-05T07:28:39;-0.80;98.00
69261;DHT22;56378;52.404;20.816;2022-12-05T07:31:11;-0.80;97.60
69261;DHT22;56378;52.404;20.816;2022-12-05T07:33:37;-0.80;97.80
69261;DHT22;56378;52.404;20.816;2022-12-05T07:36:07;-0.80;98.00
69261;DHT22;56378;52.404;20.816;2022-12-05T07:38:33;-0.70;97.90
69261;DHT22;56378;52.404;20.816;2022-12-05T07:41:06;-0.70;97.70
69261;DHT22;56378;52.404;20.816;2022-12-05T07:43:32;-0.70;97.50
69261;DHT22;56378;52.404;20.816;2022-12-05T07:46:05;-0.70;97.60
69261;DHT22;56378;52.404;20.816;2022-12-05T07:48:32;-0.70;97.90
69261;DHT22;56378;52.404;20.816;2022-12-05T07:51:02;-0.70;98.10
69261;DHT22;56378;52.404;20.816;2022-12-05T07:53:29;-0.70;98.10
69261;DHT22;56378;52.404;20.816;2022-12-05T07:55:58;-0.80;98.10
69261;DHT22;56378;52.404;20.816;2022-12-05T07:58:25;-0.80;98.40
69261;DHT22;56378;52.404;20.816;2022-12-05T08:00:51;-0.80;98.50
69261;DHT22;56378;52.404;20.816;2022-12-05T08:03:16;-0.70;98.20
69261;DHT22;56378;52.404;20.816;2022-12-05T08:05:42;-0.70;98.20
69261;DHT22;56378;52.404;20.816;2022-12-05T08:08:08;-0.70;98.00
69261;DHT22;56378;52.404;20.816;2022-12-05T08:10:34;-0.70;98.20
69261;DHT22;56378;52.404;20.816;2022-12-05T08:13:00;-0.70;98.30
69261;DHT22;56378;52.404;20.816;2022-12-05T08:15:25;-0.70;98.30
69261;DHT22;56378;52.404;20.816;2022-12-05T08:17:51;-0.70;98.00
69261;DHT22;56378;52.404;20.816;2022-12-05T08:20:17;-0.70;98.00
69261;DHT22;56378;52.404;20.816;2022-12-05T08:22:43;-0.60;98.00
69261;DHT22;56378;52.404;20.816;2022-12-05T08:25:09;-0.60;97.70
69261;DHT22;56378;52.404;20.816;2022-12-05T08:27:35;-0.60;97.80
69261;DHT22;56378;52.404;20.816;2022-12-05T08:30:01;-0.60;98.00
69261;DHT22;56378;52.404;20.816;2022-12-05T08:32:27;-0.60;97.90
69261;DHT22;56378;52.404;20.816;2022-12-05T08:34:52;-0.60;98.10
69261;DHT22;56378;52.404;20.816;2022-12-05T08:37:18;-0.60;98.00
69261;DHT22;56378;52.404;20.816;2022-12-05T08:39:44;-0.60;98.10
69261;DHT22;56378;52.404;20.816;2022-12-05T08:42:09;-0.60;97.90
69261;DHT22;56378;52.404;20.816;2022-12-05T08:44:35;-0.60;97.90
69261;DHT22;56378;52.404;20.816;2022-12-05T08:47:01;-0.60;97.90
69261;DHT22;56378;52.404;20.816;2022-12-05T08:49:26;-0.50;97.80
69261;DHT22;56378;52.404;20.816;2022-12-05T08:51:52;-0.50;97.60
69261;DHT22;56378;52.404;20.816;2022-12-05T08:54:18;-0.50;97.80
69261;DHT22;56378;52.404;20.816;2022-12-05T08:56:44;-0.50;97.40
69261;DHT22;56378;52.404;20.816;2022-12-05T08:59:10;-0.50;97.30
69261;DHT22;56378;52.404;20.816;2022-12-05T09:01:36;-0.40;97.30
69261;DHT22;56378;52.404;20.816;2022-12-05T09:04:04;-0.40;97.30
69261;DHT22;56378;52.404;20.816;2022-12-05T09:06:30;-0.40;96.90
69261;DHT22;56378;52.404;20.816;2022-12-05T09:09:04;-0.40;97.30
69261;DHT22;56378;52.404;20.816;2022-12-05T09:11:32;-0.40;97.70
69261;DHT22;56378;52.404;20.816;2022-12-05T09:14:00;-0.30;96.80
69261;DHT22;56378;52.404;20.816;2022-12-05T09:16:28;-0.30;96.80
69261;DHT22;56378;52.404;20.816;2022-12-05T09:18:55;-0.30;96.60
69261;DHT22;56378;52.404;20.816;2022-12-05T09:21:27;-0.30;96.40
69261;DHT22;56378;52.404;20.816;2022-12-05T09:23:53;-0.30;96.90
69261;DHT22;56378;52.404;20.816;2022-12-05T09:26:21;-0.30;96.70
69261;DHT22;56378;52.404;20.816;2022-12-05T09:28:48;-0.30;96.90
69261;DHT22;56378;52.404;20.816;2022-12-05T09:31:17;-0.30;96.80
69261;DHT22;56378;52.404;20.816;2022-12-05T09:33:43;-0.30;97.10
69261;DHT22;56378;52.404;20.816;2022-12-05T09:36:27;-0.30;96.90
69261;DHT22;56378;52.404;20.816;2022-12-05T09:38:54;-0.30;96.90
69261;DHT22;56378;52.404;20.816;2022-12-05T09:47:16;-0.20;97.20
69261;DHT22;56378;52.404;20.816;2022-12-05T09:50:17;-0.30;96.50
69261;DHT22;56378;52.404;20.816;2022-12-05T09:55:24;-0.30;96.70
69261;DHT22;56378;52.404;20.816;2022-12-05T09:57:56;-0.30;96.80
69261;DHT22;56378;52.404;20.816;2022-12-05T10:00:23;-0.30;96.90
69261;DHT22;56378;52.404;20.816;2022-12-05T10:11:40;-0.10;96.80
69261;DHT22;56378;52.404;20.816;2022-12-05T10:16:59;0.00;95.70
69261;DHT22;56378;52.404;20.816;2022-12-05T10:19:34;0.10;95.90
69261;DHT22;56378;52.404;20.816;2022-12-05T10:22:12;0.10;95.30
69261;DHT22;56378;52.404;20.816;2022-12-05T10:24:44;0.10;94.80
69261;DHT22;56378;52.404;20.816;2022-12-05T10:27:18;0.10;94.40
69261;DHT22;56378;52.404;20.816;2022-12-05T10:29:57;0.10;94.40
69261;DHT22;56378;52.404;20.816;2022-12-05T10:35:08;0.00;95.30
69261;DHT22;56378;52.404;20.816;2022-12-05T10:37:38;0.00;95.60
69261;DHT22;56378;52.404;20.816;2022-12-05T10:40:05;0.00;96.00
69261;DHT22;56378;52.404;20.816;2022-12-05T10:42:35;0.00;95.70
69261;DHT22;56378;52.404;20.816;2022-12-05T10:45:03;0.00;95.60
69261;DHT22;56378;52.404;20.816;2022-12-05T10:47:31;-0.10;95.90
69261;DHT22;56378;52.404;20.816;2022-12-05T10:50:02;-0.10;96.30
69261;DHT22;56378;52.404;20.816;2022-12-05T10:52:29;-0.10;96.60
69261;DHT22;56378;52.404;20.816;2022-12-05T10:55:01;-0.10;96.60
69261;DHT22;56378;52.404;20.816;2022-12-05T10:57:28;-0.10;96.80
69261;DHT22;56378;52.404;20.816;2022-12-05T10:59:55;-0.10;96.70
69261;DHT22;56378;52.404;20.816;2022-12-05T11:02:27;-0.10;96.40
69261;DHT22;56378;52.404;20.816;2022-12-05T11:04:55;-0.10;96.80
69261;DHT22;56378;52.404;20.816;2022-12-05T11:10:26;-0.10;96.60
69261;DHT22;56378;52.404;20.816;2022-12-05T11:12:55;-0.20;97.10
69261;DHT22;56378;52.404;20.816;2022-12-05T11:15:24;-0.20;97.40
69261;DHT22;56378;52.404;20.816;2022-12-05T11:17:55;-0.20;97.30
69261;DHT22;56378;52.404;20.816;2022-12-05T11:22:50;-0.20;97.70
69261;DHT22;56378;52.404;20.816;2022-12-05T11:25:34;-0.20;97.50
69261;DHT22;56378;52.404;20.816;2022-12-05T11:31:15;-0.10;97.80
69261;DHT22;56378;52.404;20.816;2022-12-05T11:34:02;-0.10;97.50
69261;DHT22;56378;52.404;20.816;2022-12-05T11:36:41;-0.10;97.80
69261;DHT22;56378;52.404;20.816;2022-12-05T11:39:11;-0.10;97.50
69261;DHT22;56378;52.404;20.816;2022-12-05T11:42:05;-0.10;97.60
69261;DHT22;56378;52.404;20.816;2022-12-05T11:53:27;0.00;97.10
69261;DHT22;56378;52.404;20.816;2022-12-05T12:07:56;0.00;97.00
69261;DHT22;56378;52.404;20.816;2022-12-05T12:10:32;0.00;97.40
69261;DHT22;56378;52.404;20.816;2022-12-05T12:19:24;-0.10;97.90
69261;DHT22;56378;52.404;20.816;2022-12-05T12:27:59;0.00;98.00
69261;DHT22;56378;52.404;20.816;2022-12-05T12:33:35;-0.10;98.60
69261;DHT22;56378;52.404;20.816;2022-12-05T12:36:26;-0.10;98.50
69261;DHT22;56378;52.404;20.816;2022-12-05T12:39:17;-0.10;98.60
69261;DHT22;56378;52.404;20.816;2022-12-05T12:45:04;-0.10;98.80
69261;DHT22;56378;52.404;20.816;2022-12-05T12:50:27;-0.10;99.10
69261;DHT22;56378;52.404;20.816;2022-12-05T12:58:57;-0.10;99.30
69261;DHT22;56378;52.404;20.816;2022-12-05T13:04:34;-0.10;99.40
69261;DHT22;56378;52.404;20.816;2022-12-05T13:07:12;-0.10;99.70
69261;DHT22;56378;52.404;20.816;2022-12-05T13:09:47;-0.10;99.90
69261;DHT22;56378;52.404;20.816;2022-12-05T13:12:16;0.00;99.90
69261;DHT22;56378;52.404;20.816;2022-12-05T13:14:59;0.00;99.90
69261;DHT22;56378;52.404;20.816;2022-12-05T13:17:28;0.00;99.80
69261;DHT22;56378;52.404;20.816;2022-12-05T13:19:56;0.00;99.90
69261;DHT22;56378;52.404;20.816;2022-12-05T13:22:23;0.00;99.90
69261;DHT22;56378;52.404;20.816;2022-12-05T13:24:51;0.00;99.80
69261;DHT22;56378;52.404;20.816;2022-12-05T13:27:19;0.00;99.80
69261;DHT22;56378;52.404;20.816;2022-12-05T13:29:47;0.00;99.90
69261;DHT22;56378;52.404;20.816;2022-12-05T13:34:50;0.00;99.70
69261;DHT22;56378;52.404;20.816;2022-12-05T13:37:28;0.00;99.90
69261;DHT22;56378;52.404;20.816;2022-12-05T13:40:36;0.00;99.90
69261;DHT22;56378;52.404;20.816;2022-12-05T13:43:24;-0.10;99.90
69261;DHT22;56378;52.404;20.816;2022-12-05T13:48:33;-0.10;99.90
69261;DHT22;56378;52.404;20.816;2022-12-05T13:51:07;-0.10;99.90
69261;DHT22;56378;52.404;20.816;2022-12-05T13:53:46;-0.10;99.90
69261;DHT22;56378;52.404;20.816;2022-12-05T13:58:46;-0.10;99.90
69261;DHT22;56378;52.404;20.816;2022-12-05T14:09:47;-0.10;99.90
69261;DHT22;56378;52.404;20.816;2022-12-05T14:17:29;-0.10;99.90
69261;DHT22;56378;52.404;20.816;2022-12-05T14:20:21;-0.10;99.90
69261;DHT22;56378;52.404;20.816;2022-12-05T14:31:23;-0.20;99.90
69261;DHT22;56378;52.404;20.816;2022-12-05T14:34:21;-0.20;99.90
69261;DHT22;56378;52.404;20.816;2022-12-05T14:39:50;-0.10;99.90
69261;DHT22;56378;52.404;20.816;2022-12-05T14:42:31;-0.20;99.90
69261;DHT22;56378;52.404;20.816;2022-12-05T14:45:02;-0.20;99.90
69261;DHT22;56378;52.404;20.816;2022-12-05T14:47:49;-0.20;99.90
69261;DHT22;56378;52.404;20.816;2022-12-05T14:50:44;-0.20;99.90
69261;DHT22;56378;52.404;20.816;2022-12-05T15:01:16;-0.20;99.90
69261;DHT22;56378;52.404;20.816;2022-12-05T15:04:03;-0.20;99.90
69261;DHT22;56378;52.404;20.816;2022-12-05T15:06:33;-0.10;99.90
69261;DHT22;56378;52.404;20.816;2022-12-05T15:09:04;-0.10;99.90
69261;DHT22;56378;52.404;20.816;2022-12-05T15:11:32;-0.10;99.90
69261;DHT22;56378;52.404;20.816;2022-12-05T15:14:20;-0.10;99.90
69261;DHT22;56378;52.404;20.816;2022-12-05T15:16:49;-0.10;99.90
69261;DHT22;56378;52.404;20.816;2022-12-05T15:19:25;-0.10;99.90
69261;DHT22;56378;52.404;20.816;2022-12-05T15:21:59;-0.10;99.90
69261;DHT22;56378;52.404;20.816;2022-12-05T15:24:26;-0.10;99.90
69261;DHT22;56378;52.404;20.816;2022-12-05T15:26:53;-0.20;99.90
69261;DHT22;56378;52.404;20.816;2022-12-05T15:32:01;-0.10;99.90
69261;DHT22;56378;52.404;20.816;2022-12-05T15:37:17;-0.10;99.90
69261;DHT22;56378;52.404;20.816;2022-12-05T15:42:35;0.00;99.90
69261;DHT22;56378;52.404;20.816;2022-12-05T15:47:50;0.00;99.90
69261;DHT22;56378;52.404;20.816;2022-12-05T15:50:26;0.00;99.90
69261;DHT22;56378;52.404;20.816;2022-12-05T15:53:01;0.00;99.90
69261;DHT22;56378;52.404;20.816;2022-12-05T15:55:37;0.00;99.90
69261;DHT22;56378;52.404;20.816;2022-12-05T16:00:45;0.00;99.90
69261;DHT22;56378;52.404;20.816;2022-12-05T16:03:32;0.00;99.90
69261;DHT22;56378;52.404;20.816;2022-12-05T16:06:05;-0.10;99.90
69261;DHT22;56378;52.404;20.816;2022-12-05T16:08:34;0.00;99.90
69261;DHT22;56378;52.404;20.816;2022-12-05T16:11:10;-0.10;99.90
69261;DHT22;56378;52.404;20.816;2022-12-05T16:13:42;0.00;99.90
69261;DHT22;56378;52.404;20.816;2022-12-05T16:16:16;0.00;99.90
69261;DHT22;56378;52.404;20.816;2022-12-05T16:18:53;0.00;99.90
69261;DHT22;56378;52.404;20.816;2022-12-05T16:21:36;0.00;99.90
69261;DHT22;56378;52.404;20.816;2022-12-05T16:24:16;0.00;99.90
69261;DHT22;56378;52.404;20.816;2022-12-05T16:26:43;0.00;99.90
69261;DHT22;56378;52.404;20.816;2022-12-05T16:29:45;0.00;99.90
69261;DHT22;56378;52.404;20.816;2022-12-05T16:32:24;0.00;99.90
69261;DHT22;56378;52.404;20.816;2022-12-05T16:34:50;0.00;99.90
69261;DHT22;56378;52.404;20.816;2022-12-05T16:37:27;0.10;99.90
69261;DHT22;56378;52.404;20.816;2022-12-05T16:39:53;0.10;99.90
69261;DHT22;56378;52.404;20.816;2022-12-05T16:42:25;0.10;99.90
69261;DHT22;56378;52.404;20.816;2022-12-05T16:47:25;0.10;99.90
69261;DHT22;56378;52.404;20.816;2022-12-05T16:49:51;0.10;99.90
69261;DHT22;56378;52.404;20.816;2022-12-05T16:52:17;0.10;99.90
69261;DHT22;56378;52.404;20.816;2022-12-05T16:54:46;0.10;99.90
69261;DHT22;56378;52.404;20.816;2022-12-05T16:57:16;0.10;99.90
69261;DHT22;56378;52.404;20.816;2022-12-05T16:59:43;0.10;99.90
69261;DHT22;56378;52.404;20.816;2022-12-05T17:02:15;0.10;99.90
69261;DHT22;56378;52.404;20.816;2022-12-05T17:04:41;0.10;99.90
69261;DHT22;56378;52.404;20.816;2022-12-05T17:07:07;0.10;99.90
69261;DHT22;56378;52.404;20.816;2022-12-05T17:09:33;0.10;99.90
69261;DHT22;56378;52.404;20.816;2022-12-05T17:12:22;0.10;99.90
69261;DHT22;56378;52.404;20.816;2022-12-05T17:14:48;0.10;99.90
69261;DHT22;56378;52.404;20.816;2022-12-05T17:17:14;0.10;99.90
69261;DHT22;56378;52.404;20.816;2022-12-05T17:19:43;0.20;99.90
69261;DHT22;56378;52.404;20.816;2022-12-05T17:22:11;0.20;99.90
69261;DHT22;56378;52.404;20.816;2022-12-05T17:24:37;0.20;99.90
69261;DHT22;56378;52.404;20.816;2022-12-05T17:27:05;0.20;99.90
69261;DHT22;56378;52.404;20.816;2022-12-05T17:29:30;0.20;99.90
69261;DHT22;56378;52.404;20.816;2022-12-05T17:31:56;0.20;99.90
69261;DHT22;56378;52.404;20.816;2022-12-05T17:34:22;0.20;99.90
69261;DHT22;56378;52.404;20.816;2022-12-05T17:36:47;0.20;99.90
69261;DHT22;56378;52.404;20.816;2022-12-05T17:39:13;0.10;99.90
69261;DHT22;56378;52.404;20.816;2022-12-05T17:41:39;0.20;99.90
69261;DHT22;56378;52.404;20.816;2022-12-05T17:44:05;0.20;99.90
69261;DHT22;56378;52.404;20.816;2022-12-05T17:46:31;0.20;99.90
69261;DHT22;56378;52.404;20.816;2022-12-05T17:48:57;0.20;99.90
69261;DHT22;56378;52.404;20.816;2022-12-05T17:51:23;0.20;99.90
69261;DHT22;56378;52.404;20.816;2022-12-05T17:53:49;0.20;99.90
69261;DHT22;56378;52.404;20.816;2022-12-05T17:56:17;0.20;99.90
69261;DHT22;56378;52.404;20.816;2022-12-05T17:58:42;0.20;99.90
69261;DHT22;56378;52.404;20.816;2022-12-05T18:01:18;0.20;99.90
69261;DHT22;56378;52.404;20.816;2022-12-05T18:03:45;0.30;99.90
69261;DHT22;56378;52.404;20.816;2022-12-05T18:06:11;0.30;99.90
69261;DHT22;56378;52.404;20.816;2022-12-05T18:08:37;0.20;99.90
69261;DHT22;56378;52.404;20.816;2022-12-05T18:11:04;0.30;99.90
69261;DHT22;56378;52.404;20.816;2022-12-05T18:13:30;0.30;99.90
69261;DHT22;56378;52.404;20.816;2022-12-05T18:15:57;0.30;99.90
69261;DHT22;56378;52.404;20.816;2022-12-05T18:18:23;0.30;99.90
69261;DHT22;56378;52.404;20.816;2022-12-05T18:20:52;0.30;99.90
69261;DHT22;56378;52.404;20.816;2022-12-05T18:25:43;0.30;99.90
69261;DHT22;56378;52.404;20.816;2022-12-05T18:28:11;0.30;99.90
69261;DHT22;56378;52.404;20.816;2022-12-05T18:30:37;0.30;99.90
69261;DHT22;56378;52.404;20.816;2022-12-05T18:33:03;0.30;99.90
69261;DHT22;56378;52.404;20.816;2022-12-05T18:35:28;0.30;99.90
69261;DHT22;56378;52.404;20.816;2022-12-05T18:38:10;0.30;99.90
69261;DHT22;56378;52.404;20.816;2022-12-05T18:40:36;0.40;99.90